Time;durP1;ratioP1;P1;durP2;ratioP2;P2;SDS_P1;SDS_P2;PMS_P1;PMS_P2;Temp;Humidity;BMP_temperature;BMP_pressure;BME280_temperature;BME280_humidity;BME280_pressure;Samples;Min_cycle;Max_cycle;Signal;HPM_P1;HPM_P2
2021/03/17 00:01:18;;;;;;;35.72;33.35;;;20.60;99.90;;;;;;5092074;28;20027;-68
2021/03/17 00:03:45;;;;;;;36.00;33.25;;;20.60;99.90;;;;;;5093369;28;20047;-68
2021/03/17 00:06:14;;;;;;;38.20;35.33;;;20.70;99.90;;;;;;5093417;28;20028;-68
2021/03/17 00:08:41;;;;;;;38.60;35.90;;;20.70;99.90;;;;;;5093555;28;20044;-68
2021/03/17 00:11:08;;;;;;;38.00;35.30;;;20.80;99.90;;;;;;5093202;28;20544;-68
2021/03/17 00:13:36;;;;;;;39.33;36.67;;;20.80;99.90;;;;;;5093183;28;20027;-68
2021/03/17 00:16:03;;;;;;;39.53;36.47;;;20.90;99.90;;;;;;5093536;28;20469;-68
2021/03/17 00:18:31;;;;;;;38.40;35.90;;;21.00;99.90;;;;;;5093076;28;20077;-68
2021/03/17 00:20:58;;;;;;;37.58;35.08;;;21.20;99.90;;;;;;5093071;28;20035;-68
2021/03/17 00:23:25;;;;;;;35.70;33.15;;;21.60;99.90;;;;;;5093079;28;20028;-67
2021/03/17 00:25:53;;;;;;;33.80;31.40;;;21.80;99.90;;;;;;5096492;28;20027;-68
2021/03/17 00:28:20;;;;;;;29.58;27.40;;;22.10;99.90;;;;;;5097295;28;20028;-68
2021/03/17 00:30:48;;;;;;;28.65;26.45;;;22.20;99.90;;;;;;5097186;28;20100;-68
2021/03/17 00:33:16;;;;;;;26.50;24.60;;;22.30;99.90;;;;;;5097271;28;20059;-67
2021/03/17 00:35:44;;;;;;;26.67;24.90;;;22.20;99.90;;;;;;5095824;28;20049;-70
2021/03/17 00:38:11;;;;;;;28.35;26.45;;;22.20;99.90;;;;;;5097118;28;20461;-69
2021/03/17 00:40:39;;;;;;;26.83;24.77;;;22.10;99.90;;;;;;5096830;28;20048;-68
2021/03/17 00:43:06;;;;;;;28.48;26.33;;;22.20;99.90;;;;;;5097065;28;20104;-67
2021/03/17 00:45:33;;;;;;;28.80;26.67;;;22.20;99.90;;;;;;5097045;28;20028;-68
2021/03/17 00:48:01;;;;;;;30.80;28.70;;;22.20;99.90;;;;;;5097274;28;20047;-68
2021/03/17 00:50:28;;;;;;;30.20;28.10;;;22.10;99.90;;;;;;5097216;28;20020;-68
2021/03/17 00:52:57;;;;;;;30.73;28.52;;;22.20;99.90;;;;;;5096736;28;20024;-68
2021/03/17 00:55:25;;;;;;;31.33;28.85;;;22.20;99.90;;;;;;5096546;28;20035;-67
2021/03/17 00:57:52;;;;;;;28.88;26.98;;;22.30;99.90;;;;;;5096999;28;20024;-67
2021/03/17 01:00:21;;;;;;;29.58;27.60;;;22.70;99.90;;;;;;5096734;28;20025;-68
2021/03/17 01:02:50;;;;;;;29.35;27.40;;;23.00;99.90;;;;;;5096524;28;20541;-68
2021/03/17 01:05:18;;;;;;;26.42;24.50;;;23.30;99.90;;;;;;5096542;28;20088;-65
2021/03/17 01:07:45;;;;;;;26.50;24.50;;;23.20;99.90;;;;;;5096666;28;20362;-64
2021/03/17 01:10:17;;;;;;;24.42;22.75;;;23.20;99.90;;;;;;5096528;28;20027;-64
2021/03/17 01:12:45;;;;;;;24.42;22.73;;;23.20;99.90;;;;;;5096343;28;20028;-70
2021/03/17 01:15:15;;;;;;;23.60;22.00;;;23.10;99.90;;;;;;5096772;28;20084;-64
2021/03/17 01:17:42;;;;;;;22.95;21.25;;;23.20;99.90;;;;;;5096604;28;20376;-62
2021/03/17 01:20:10;;;;;;;21.88;20.08;;;23.20;99.90;;;;;;5096302;28;20024;-66
2021/03/17 01:22:38;;;;;;;23.30;21.13;;;23.20;99.90;;;;;;5096348;28;20074;-63
2021/03/17 01:25:12;;;;;;;21.02;19.38;;;23.30;99.90;;;;;;5096205;28;20065;-65
2021/03/17 01:27:39;;;;;;;20.35;18.63;;;23.60;99.90;;;;;;5096523;28;20012;-61
2021/03/17 01:30:08;;;;;;;19.25;17.65;;;23.70;99.90;;;;;;5095904;28;20449;-66
2021/03/17 01:32:36;;;;;;;19.08;17.40;;;23.80;99.90;;;;;;5095288;28;20443;-65
2021/03/17 01:35:14;;;;;;;17.20;15.48;;;23.70;99.90;;;;;;5095584;28;20095;-60
2021/03/17 01:37:41;;;;;;;17.65;15.93;;;23.40;99.90;;;;;;5096024;28;20013;-65
2021/03/17 01:40:10;;;;;;;18.70;17.05;;;23.20;99.90;;;;;;5095659;28;20068;-64
2021/03/17 01:42:38;;;;;;;16.73;15.40;;;23.10;99.90;;;;;;5094933;28;20354;-65
2021/03/17 01:45:14;;;;;;;18.40;16.80;;;22.90;99.90;;;;;;5096301;28;20027;-67
2021/03/17 01:47:46;;;;;;;17.33;16.00;;;22.70;99.90;;;;;;5095792;28;20071;-63
2021/03/17 01:50:17;;;;;;;16.25;14.95;;;22.80;99.90;;;;;;5096327;28;20364;-66
2021/03/17 01:52:45;;;;;;;18.58;17.00;;;22.80;99.90;;;;;;5094381;28;20016;-65
2021/03/17 01:55:13;;;;;;;18.67;17.02;;;22.90;99.90;;;;;;5095779;28;20016;-65
2021/03/17 01:57:43;;;;;;;20.70;19.20;;;22.80;99.90;;;;;;5095610;28;20048;-65
2021/03/17 02:00:13;;;;;;;21.27;19.75;;;22.80;99.90;;;;;;5095452;28;20507;-65
2021/03/17 02:02:56;;;;;;;22.53;20.80;;;22.60;99.90;;;;;;5095431;28;20457;-66
2021/03/17 02:05:42;;;;;;;24.98;22.88;;;22.50;99.90;;;;;;5096497;28;20027;-65
2021/03/17 02:08:13;;;;;;;22.40;20.65;;;22.40;99.90;;;;;;5095893;28;20103;-66
2021/03/17 02:10:41;;;;;;;21.45;19.83;;;22.30;99.90;;;;;;5095197;28;20046;-67
2021/03/17 02:13:36;;;;;;;21.05;19.45;;;22.40;99.90;;;;;;5095200;28;20111;-65
2021/03/17 02:16:18;;;;;;;20.05;18.88;;;22.50;99.90;;;;;;5095166;28;20476;-67
2021/03/17 02:18:51;;;;;;;20.75;19.08;;;22.60;99.90;;;;;;5095312;28;20423;-67
2021/03/17 02:21:55;;;;;;;21.08;19.52;;;22.60;99.90;;;;;;5095656;28;20027;-66
2021/03/17 02:24:52;;;;;;;19.25;17.75;;;22.70;99.90;;;;;;5095100;28;20469;-63
2021/03/17 02:27:41;;;;;;;18.50;17.30;;;22.80;99.90;;;;;;5094966;28;20028;-66
2021/03/17 02:30:47;;;;;;;18.35;16.98;;;22.80;99.90;;;;;;5095263;28;20028;-67
2021/03/17 02:33:38;;;;;;;19.05;17.35;;;22.80;99.90;;;;;;5094771;28;20065;-60
2021/03/17 02:36:34;;;;;;;19.80;18.25;;;22.60;99.90;;;;;;5094752;28;20081;-66
2021/03/17 02:39:14;;;;;;;18.42;17.30;;;22.80;99.90;;;;;;5094652;28;20044;-65
2021/03/17 02:42:07;;;;;;;18.70;17.40;;;22.90;99.90;;;;;;5095012;28;20024;-66
2021/03/17 02:44:44;;;;;;;18.08;16.45;;;23.00;99.90;;;;;;5064234;28;20031;-67
2021/03/17 02:47:13;;;;;;;18.23;17.05;;;23.00;99.90;;;;;;5093674;28;20077;-61
2021/03/17 02:49:42;;;;;;;18.60;17.33;;;22.90;99.90;;;;;;5094608;28;20025;-67
2021/03/17 02:52:11;;;;;;;17.92;16.67;;;23.10;99.90;;;;;;5094524;28;20413;-66
2021/03/17 02:54:41;;;;;;;16.23;15.02;;;23.10;99.90;;;;;;5094310;28;20428;-64
2021/03/17 02:57:27;;;;;;;15.48;14.43;;;23.20;99.90;;;;;;5094477;28;20016;-70
2021/03/17 02:59:58;;;;;;;15.90;14.40;;;23.00;99.90;;;;;;5094331;28;20031;-67
2021/03/17 03:02:25;;;;;;;15.32;14.25;;;23.20;99.90;;;;;;5094851;28;20360;-65
2021/03/17 03:04:55;;;;;;;15.50;14.25;;;23.30;99.90;;;;;;5094370;28;20024;-67
2021/03/17 03:07:23;;;;;;;13.20;12.40;;;23.60;99.90;;;;;;5094275;28;20044;-66
2021/03/17 03:09:54;;;;;;;14.73;13.55;;;23.90;99.90;;;;;;5094306;28;20024;-68
2021/03/17 03:12:23;;;;;;;14.85;13.75;;;24.20;99.90;;;;;;5095313;28;20028;-66
2021/03/17 03:14:53;;;;;;;12.93;12.05;;;24.10;99.90;;;;;;5094097;28;20111;-67
2021/03/17 03:17:21;;;;;;;13.27;12.38;;;23.60;99.90;;;;;;5094154;28;20020;-67
2021/03/17 03:19:56;;;;;;;13.90;13.10;;;23.60;99.90;;;;;;5094101;28;20464;-70
2021/03/17 03:22:26;;;;;;;13.98;12.82;;;23.50;99.90;;;;;;5094066;28;20376;-65
2021/03/17 03:24:56;;;;;;;14.20;12.90;;;23.50;99.90;;;;;;5094120;28;20400;-66
2021/03/17 03:27:26;;;;;;;13.60;12.73;;;23.30;99.90;;;;;;5094006;28;20032;-63
2021/03/17 03:29:53;;;;;;;;;;;23.20;99.90;;;;;;5094376;28;20034;-63
2021/03/17 03:32:21;;;;;;;14.10;12.93;;;23.10;99.90;;;;;;5093962;28;19995;-66
2021/03/17 03:34:49;;;;;;;13.82;12.93;;;23.10;99.90;;;;;;5094547;28;20031;-64
2021/03/17 03:37:16;;;;;;;13.43;12.40;;;23.10;99.90;;;;;;5093680;28;20052;-67
2021/03/17 03:39:44;;;;;;;14.32;12.90;;;23.00;99.90;;;;;;5093502;28;20047;-64
2021/03/17 03:42:12;;;;;;;13.13;12.30;;;23.20;99.90;;;;;;5093668;28;20020;-66
2021/03/17 03:44:39;;;;;;;13.77;12.75;;;23.10;99.90;;;;;;5093564;28;20099;-66
2021/03/17 03:47:06;;;;;;;15.02;13.93;;;22.90;99.90;;;;;;5093759;28;20400;-70
2021/03/17 03:49:36;;;;;;;14.82;13.65;;;22.80;99.90;;;;;;5092403;28;20155;-68
2021/03/17 03:52:12;;;;;;;15.40;14.40;;;22.90;99.90;;;;;;5093522;28;20024;-67
2021/03/17 03:54:43;;;;;;;14.95;13.98;;;22.90;99.90;;;;;;5093752;28;20119;-68
2021/03/17 03:57:33;;;;;;;15.80;14.43;;;22.80;99.90;;;;;;5093690;28;20024;-65
2021/03/17 04:00:09;;;;;;;16.23;15.13;;;22.80;99.90;;;;;;5093484;28;20103;-64
2021/03/17 04:02:49;;;;;;;15.13;14.13;;;22.60;99.90;;;;;;5093342;28;20429;-62
2021/03/17 04:05:30;;;;;;;15.97;14.40;;;22.60;99.90;;;;;;5094113;28;20525;-65
2021/03/17 04:07:57;;;;;;;;;;;22.40;99.90;;;;;;5093851;28;20024;-66
2021/03/17 04:10:25;;;;;;;17.08;16.02;;;22.50;99.90;;;;;;5091921;28;19908;-68
2021/03/17 04:12:55;;;;;;;19.35;17.52;;;22.30;99.90;;;;;;5093154;28;20168;-68
2021/03/17 04:15:23;;;;;;;19.40;17.80;;;22.10;99.90;;;;;;5093266;28;20385;-66
2021/03/17 04:17:53;;;;;;;20.25;18.75;;;22.10;99.90;;;;;;5091822;28;20503;-61
2021/03/17 04:20:30;;;;;;;;;;;22.00;99.90;;;;;;5093897;28;20024;-67
2021/03/17 04:22:58;;;;;;;21.80;20.30;;;22.30;99.90;;;;;;5093397;28;19987;-70
2021/03/17 04:25:31;;;;;;;19.02;17.70;;;22.60;99.90;;;;;;5093293;28;20489;-67
2021/03/17 04:28:00;;;;;;;17.65;16.55;;;23.00;99.90;;;;;;5093141;28;20021;-65
2021/03/17 04:30:28;;;;;;;15.85;14.93;;;23.40;99.90;;;;;;5092927;28;20524;-64
2021/03/17 04:32:56;;;;;;;15.85;14.77;;;23.40;99.90;;;;;;5092873;28;20020;-69
2021/03/17 04:35:24;;;;;;;14.65;13.63;;;23.20;99.90;;;;;;5093828;28;20028;-67
2021/03/17 04:37:56;;;;;;;14.45;13.40;;;23.30;99.90;;;;;;5093085;28;20024;-66
2021/03/17 04:40:24;;;;;;;14.30;13.20;;;23.40;99.90;;;;;;5092746;28;20041;-61
2021/03/17 04:42:52;;;;;;;14.65;13.65;;;23.60;99.90;;;;;;5093447;28;20072;-67
2021/03/17 04:45:20;;;;;;;13.90;12.85;;;23.90;99.90;;;;;;5092970;28;20020;-66
2021/03/17 04:47:51;;;;;;;13.98;12.98;;;23.90;99.90;;;;;;5093209;28;20507;-64
2021/03/17 04:50:20;;;;;;;15.95;14.73;;;23.50;99.90;;;;;;5092971;28;20016;-68
2021/03/17 04:52:47;;;;;;;16.65;15.25;;;22.80;99.90;;;;;;5092964;28;20016;-64
2021/03/17 04:55:16;;;;;;;17.08;15.77;;;22.40;99.90;;;;;;5092910;28;20025;-67
2021/03/17 04:57:45;;;;;;;15.88;14.93;;;22.30;99.90;;;;;;5092795;28;20021;-65
2021/03/17 05:00:17;;;;;;;16.52;15.38;;;22.20;99.90;;;;;;5093463;28;20028;-66
2021/03/17 05:03:01;;;;;;;16.33;15.27;;;22.40;99.90;;;;;;5092686;28;20055;-66
2021/03/17 05:05:31;;;;;;;14.70;13.90;;;22.60;99.90;;;;;;5092905;28;20039;-66
2021/03/17 05:07:59;;;;;;;14.30;13.27;;;22.60;99.90;;;;;;5092796;28;20032;-62
2021/03/17 05:10:28;;;;;;;21.73;20.52;;;22.30;99.90;;;;;;5093424;28;20031;-63
2021/03/17 05:12:55;;;;;;;29.27;27.48;;;21.50;99.90;;;;;;5096688;28;20031;-70
2021/03/17 05:15:24;;;;;;;32.10;30.30;;;21.20;99.90;;;;;;5096235;28;20491;-67
2021/03/17 05:17:53;;;;;;;35.10;33.05;;;21.20;99.90;;;;;;5096324;28;20027;-65
2021/03/17 05:20:23;;;;;;;37.08;34.90;;;21.10;99.90;;;;;;5096161;28;20353;-69
2021/03/17 05:22:52;;;;;;;40.13;36.97;;;21.20;99.90;;;;;;5096341;28;20058;-68
2021/03/17 05:25:22;;;;;;;43.95;41.35;;;21.30;99.90;;;;;;5094903;28;20362;-64
2021/03/17 05:28:03;;;;;;;42.30;39.80;;;21.20;99.90;;;;;;5096027;28;20099;-63
2021/03/17 05:30:34;;;;;;;53.05;49.88;;;21.20;99.90;;;;;;5095837;28;20024;-65
2021/03/17 05:33:02;;;;;;;60.42;56.80;;;21.20;99.90;;;;;;5096520;28;20030;-67
2021/03/17 05:35:30;;;;;;;63.38;59.50;;;20.90;99.90;;;;;;5095915;28;20433;-61
2021/03/17 05:37:58;;;;;;;65.32;61.22;;;20.70;99.90;;;;;;5095767;28;20400;-69
2021/03/17 05:40:25;;;;;;;69.47;65.20;;;20.70;99.90;;;;;;5095590;28;20048;-66
2021/03/17 05:42:53;;;;;;;66.07;61.92;;;20.80;99.90;;;;;;5095776;28;20035;-66
2021/03/17 05:45:22;;;;;;;66.45;62.75;;;20.70;99.90;;;;;;5095700;28;20016;-67
2021/03/17 05:47:51;;;;;;;64.75;60.75;;;20.60;99.90;;;;;;5095936;28;20388;-60
2021/03/17 05:50:21;;;;;;;61.22;57.63;;;20.80;99.90;;;;;;5095399;28;20028;-71
2021/03/17 05:52:48;;;;;;;59.53;55.92;;;20.90;99.90;;;;;;5095449;28;20027;-62
2021/03/17 05:55:17;;;;;;;57.17;53.80;;;21.10;99.90;;;;;;5095231;28;20032;-65
2021/03/17 05:57:46;;;;;;;51.13;48.17;;;21.20;99.90;;;;;;5095481;28;20461;-72
2021/03/17 06:00:16;;;;;;;51.40;48.33;;;21.30;99.90;;;;;;5095340;28;20016;-62
2021/03/17 06:02:43;;;;;;;56.97;53.33;;;21.40;99.90;;;;;;5095269;28;20035;-66
2021/03/17 06:05:12;;;;;;;58.28;54.72;;;21.20;99.90;;;;;;5095313;28;20021;-66
2021/03/17 06:08:00;;;;;;;60.05;56.35;;;21.00;99.90;;;;;;5095129;28;20020;-62
2021/03/17 06:10:28;;;;;;;59.08;55.65;;;20.70;99.90;;;;;;5095017;28;20534;-66
2021/03/17 06:13:01;;;;;;;60.13;56.58;;;20.70;99.90;;;;;;5095064;28;20020;-66
2021/03/17 06:15:30;;;;;;;61.22;57.67;;;20.60;99.90;;;;;;5095772;28;20499;-67
2021/03/17 06:18:07;;;;;;;63.67;60.00;;;20.40;99.90;;;;;;5095195;28;20480;-63
2021/03/17 06:20:35;;;;;;;68.10;64.22;;;20.30;99.90;;;;;;5094964;28;20024;-66
2021/03/17 06:23:03;;;;;;;72.63;68.22;;;20.20;99.90;;;;;;5093681;28;20031;-67
2021/03/17 06:25:31;;;;;;;73.50;68.82;;;19.80;99.90;;;;;;5095061;28;20098;-66
2021/03/17 06:27:59;;;;;;;76.75;71.55;;;19.60;99.90;;;;;;5095334;28;20085;-66
2021/03/17 06:30:26;;;;;;;74.50;69.68;;;19.40;99.90;;;;;;5095142;28;20028;-66
2021/03/17 06:32:54;;;;;;;78.50;73.40;;;19.40;99.90;;;;;;5094943;28;20024;-69
2021/03/17 06:35:24;;;;;;;79.18;73.90;;;19.30;99.90;;;;;;5094811;28;20098;-68
2021/03/17 06:37:53;;;;;;;80.78;75.68;;;19.10;99.90;;;;;;5095594;28;20487;-62
2021/03/17 06:40:39;;;;;;;77.97;72.88;;;19.00;99.90;;;;;;5094550;28;20225;-64
2021/03/17 06:43:12;;;;;;;74.80;70.10;;;19.00;99.90;;;;;;5095284;28;20032;-65
2021/03/17 06:45:43;;;;;;;72.45;67.47;;;19.10;99.90;;;;;;5093708;28;20492;-65
2021/03/17 06:48:25;;;;;;;73.93;69.07;;;19.10;99.90;;;;;;5095802;28;20085;-64
2021/03/17 06:51:13;;;;;;;76.47;70.97;;;19.10;99.90;;;;;;5094496;28;20034;-64
2021/03/17 06:53:46;;;;;;;76.13;70.97;;;19.00;99.90;;;;;;5093042;28;20050;-66
2021/03/17 06:56:21;;;;;;;78.45;72.90;;;19.00;99.90;;;;;;5094482;28;20499;-64
2021/03/17 06:58:51;;;;;;;80.28;74.60;;;19.10;99.90;;;;;;5094213;28;20488;-64
2021/03/17 07:01:46;;;;;;;80.00;74.40;;;18.90;99.90;;;;;;5094293;28;20046;-64
2021/03/17 07:04:14;;;;;;;79.53;74.10;;;18.80;99.90;;;;;;5094291;28;20332;-64
2021/03/17 07:06:43;;;;;;;78.68;73.57;;;18.80;99.90;;;;;;5092969;28;20034;-65
2021/03/17 07:09:27;;;;;;;79.00;73.22;;;18.90;99.90;;;;;;5094273;28;20020;-64
2021/03/17 07:12:15;;;;;;;75.65;69.85;;;18.90;99.90;;;;;;5094212;28;20092;-64
2021/03/17 07:14:44;;;;;;;69.20;64.30;;;18.90;99.90;;;;;;5094308;28;20085;-64
2021/03/17 07:17:43;;;;;;;66.88;62.13;;;19.00;99.90;;;;;;5094120;28;20099;-64
2021/03/17 07:20:11;;;;;;;68.25;63.40;;;19.00;99.90;;;;;;5050250;28;20028;-65
2021/03/17 07:22:38;;;;;;;71.38;66.40;;;18.90;99.90;;;;;;5093884;28;20048;-64
2021/03/17 07:25:06;;;;;;;71.65;66.88;;;18.80;99.90;;;;;;5093860;28;20036;-65
2021/03/17 07:27:35;;;;;;;71.78;66.60;;;18.80;99.90;;;;;;5093883;28;20476;-65
2021/03/17 07:30:06;;;;;;;71.20;66.40;;;18.80;99.90;;;;;;5093566;28;20035;-65
2021/03/17 07:33:06;;;;;;;72.97;67.65;;;18.70;99.90;;;;;;5093649;28;20063;-65
2021/03/17 07:35:37;;;;;;;71.13;66.07;;;18.70;99.90;;;;;;5093730;28;20032;-65
2021/03/17 07:38:08;;;;;;;;;;;18.80;99.90;;;;;;5094056;28;20039;-65
2021/03/17 07:40:43;;;;;;;73.82;68.47;;;18.70;99.90;;;;;;5093460;28;19918;-65
2021/03/17 07:43:13;;;;;;;72.90;67.35;;;18.70;99.90;;;;;;5093892;28;20354;-65
2021/03/17 07:45:41;;;;;;;71.97;66.18;;;18.70;99.90;;;;;;5093795;28;20500;-64
2021/03/17 07:48:11;;;;;;;74.47;69.00;;;18.70;99.90;;;;;;5093163;28;20102;-65
2021/03/17 07:50:42;;;;;;;72.55;67.05;;;18.80;99.90;;;;;;5093317;28;20016;-66
2021/03/17 07:53:17;;;;;;;71.10;65.97;;;18.80;99.90;;;;;;5093925;28;20067;-64
2021/03/17 07:55:46;;;;;;;72.03;66.97;;;18.80;99.90;;;;;;5093732;28;20465;-64
2021/03/17 07:58:16;;;;;;;74.40;69.40;;;18.80;99.90;;;;;;5093363;28;20012;-64
2021/03/17 08:00:44;;;;;;;70.05;65.35;;;18.70;99.90;;;;;;5093221;28;20503;-65
2021/03/17 08:03:16;;;;;;;70.45;65.60;;;18.60;99.90;;;;;;5093305;28;20028;-64
2021/03/17 08:05:44;;;;;;;71.95;66.85;;;18.60;99.90;;;;;;5093065;28;20044;-63
2021/03/17 08:08:12;;;;;;;70.78;65.93;;;18.60;99.90;;;;;;5093112;28;20073;-64
2021/03/17 08:10:45;;;;;;;71.80;67.00;;;18.70;99.90;;;;;;5093094;28;20380;-64
2021/03/17 08:13:16;;;;;;;70.97;66.28;;;18.70;99.90;;;;;;5093105;28;20473;-64
2021/03/17 08:15:48;;;;;;;70.22;65.18;;;18.70;99.90;;;;;;5093006;28;20016;-64
2021/03/17 08:18:36;;;;;;;68.03;63.17;;;18.60;99.90;;;;;;5093376;28;20028;-64
2021/03/17 08:21:04;;;;;;;68.63;63.95;;;18.70;99.90;;;;;;5092963;28;20440;-63
2021/03/17 08:23:57;;;;;;;70.43;65.53;;;18.70;99.90;;;;;;5093036;28;20051;-62
2021/03/17 08:26:25;;;;;;;69.18;64.57;;;18.60;99.90;;;;;;5090075;28;20032;-63
2021/03/17 08:28:57;;;;;;;71.57;66.68;;;18.50;99.90;;;;;;5093028;28;20028;-63
2021/03/17 08:31:48;;;;;;;69.35;64.45;;;18.40;99.90;;;;;;5092689;28;20510;-63
2021/03/17 08:34:22;;;;;;;68.85;63.70;;;18.40;99.90;;;;;;5081536;28;20036;-59
2021/03/17 08:36:58;;;;;;;67.15;61.97;;;18.30;99.90;;;;;;5092926;28;20464;-63
2021/03/17 08:39:34;;;;;;;66.43;61.97;;;18.30;99.90;;;;;;5092909;28;20119;-63
2021/03/17 08:42:06;;;;;;;66.18;61.78;;;18.20;99.90;;;;;;5093253;28;20068;-62
2021/03/17 08:44:44;;;;;;;67.85;62.97;;;18.20;99.90;;;;;;5093061;28;20104;-63
2021/03/17 08:47:35;;;;;;;74.32;69.03;;;18.20;99.90;;;;;;5096645;28;20427;-62
2021/03/17 08:50:22;;;;;;;72.55;67.10;;;18.20;99.90;;;;;;5097408;28;20020;-62
2021/03/17 08:52:54;;;;;;;74.45;69.10;;;18.20;99.90;;;;;;5096363;28;20034;-62
2021/03/17 08:55:38;;;;;;;74.25;68.80;;;18.30;99.90;;;;;;5096688;28;20116;-62
2021/03/17 08:58:09;;;;;;;75.10;69.72;;;18.30;99.90;;;;;;5096588;28;20116;-63
2021/03/17 09:00:55;;;;;;;75.63;70.10;;;18.40;99.90;;;;;;5095206;28;20107;-63
2021/03/17 09:03:40;;;;;;;73.53;68.45;;;18.40;99.90;;;;;;5096781;28;20032;-63
2021/03/17 09:06:27;;;;;;;74.72;70.05;;;18.40;99.90;;;;;;5096673;28;20051;-62
2021/03/17 09:09:05;;;;;;;72.65;67.85;;;18.30;99.90;;;;;;5096681;28;20031;-63
2021/03/17 09:11:32;;;;;;;71.30;66.88;;;18.30;99.90;;;;;;5096099;28;20098;-63
2021/03/17 09:14:04;;;;;;;72.88;68.07;;;18.30;99.90;;;;;;5096540;28;20067;-63
2021/03/17 09:16:37;;;;;;;73.78;69.00;;;18.20;99.90;;;;;;5096567;28;20061;-63
2021/03/17 09:19:08;;;;;;;77.03;72.03;;;18.10;99.90;;;;;;5096593;28;20097;-64
2021/03/17 09:21:38;;;;;;;74.63;69.47;;;18.20;99.90;;;;;;5096314;28;20029;-63
2021/03/17 09:24:28;;;;;;;76.72;71.25;;;18.20;99.90;;;;;;5096357;28;20070;-64
2021/03/17 09:27:07;;;;;;;75.90;70.55;;;18.20;99.90;;;;;;5096264;28;20063;-63
2021/03/17 09:29:36;;;;;;;74.78;69.68;;;18.20;99.90;;;;;;5096053;28;20024;-63
2021/03/17 09:32:04;;;;;;;73.35;68.20;;;18.30;99.90;;;;;;5096307;28;20024;-63
2021/03/17 09:34:34;;;;;;;72.30;67.40;;;18.40;99.90;;;;;;5096004;28;20024;-63
2021/03/17 09:37:09;;;;;;;76.47;71.22;;;18.50;99.90;;;;;;5096307;28;20099;-63
2021/03/17 09:39:39;;;;;;;74.63;69.38;;;18.50;99.90;;;;;;5095991;28;20036;-63
2021/03/17 09:42:14;;;;;;;76.95;71.85;;;18.50;99.90;;;;;;5096251;28;20031;-63
2021/03/17 09:44:41;;;;;;;76.75;71.13;;;18.40;99.90;;;;;;5096070;28;20028;-63
2021/03/17 09:47:09;;;;;;;79.43;74.10;;;18.40;99.90;;;;;;5095688;28;20020;-64
2021/03/17 09:49:36;;;;;;;79.40;73.55;;;18.30;99.90;;;;;;5095816;28;20040;-65
2021/03/17 09:52:05;;;;;;;77.93;72.28;;;18.30;99.90;;;;;;5094346;28;20400;-63
2021/03/17 09:54:33;;;;;;;79.03;73.80;;;18.30;99.90;;;;;;5095483;28;20031;-63
2021/03/17 09:57:02;;;;;;;78.22;73.05;;;18.30;99.90;;;;;;5095439;28;20497;-63
2021/03/17 09:59:32;;;;;;;81.07;75.47;;;18.30;99.90;;;;;;5095680;28;20048;-63
2021/03/17 10:02:21;;;;;;;80.88;75.53;;;18.30;99.90;;;;;;5095547;28;20050;-63
2021/03/17 10:05:02;;;;;;;78.32;72.85;;;18.30;99.90;;;;;;5095456;28;20503;-63
2021/03/17 10:07:35;;;;;;;80.10;74.25;;;18.40;99.90;;;;;;5095290;28;20028;-63
2021/03/17 10:10:03;;;;;;;76.72;71.38;;;18.40;99.90;;;;;;5095784;28;20024;-63
2021/03/17 10:12:32;;;;;;;78.40;72.80;;;18.50;99.90;;;;;;5096146;28;20082;-63
2021/03/17 10:15:04;;;;;;;78.28;72.82;;;18.50;99.90;;;;;;5095264;28;20107;-62
2021/03/17 10:17:32;;;;;;;77.50;72.30;;;18.50;99.90;;;;;;5095338;28;20031;-63
2021/03/17 10:20:04;;;;;;;74.60;69.40;;;18.60;99.90;;;;;;5095120;28;20073;-64
2021/03/17 10:22:31;;;;;;;71.05;66.35;;;18.60;99.90;;;;;;5095096;28;20384;-63
2021/03/17 10:25:05;;;;;;;71.28;66.63;;;18.70;99.90;;;;;;5095098;28;20024;-63
2021/03/17 10:27:34;;;;;;;70.30;65.38;;;18.70;99.90;;;;;;5095165;28;20024;-63
2021/03/17 10:30:05;;;;;;;70.00;64.97;;;18.80;99.90;;;;;;5095103;28;20062;-63
2021/03/17 10:32:35;;;;;;;69.20;64.20;;;18.80;99.90;;;;;;5094884;28;20028;-63
2021/03/17 10:35:08;;;;;;;71.40;65.88;;;18.90;99.90;;;;;;5094771;28;20101;-63
2021/03/17 10:37:37;;;;;;;70.03;64.93;;;19.00;99.90;;;;;;5094815;28;20024;-63
2021/03/17 10:40:12;;;;;;;69.75;64.53;;;19.00;99.90;;;;;;5094687;28;20059;-63
2021/03/17 10:43:09;;;;;;;69.50;64.70;;;19.00;99.90;;;;;;5094666;28;20499;-62
2021/03/17 10:45:47;;;;;;;72.97;68.00;;;19.10;99.90;;;;;;5094632;28;20047;-63
2021/03/17 10:48:20;;;;;;;74.85;69.30;;;19.10;99.90;;;;;;5094751;28;20042;-62
2021/03/17 10:50:48;;;;;;;71.53;66.68;;;19.10;99.90;;;;;;5094598;28;20032;-62
2021/03/17 10:53:20;;;;;;;69.28;64.32;;;19.10;99.90;;;;;;5094625;28;20030;-63
2021/03/17 10:55:53;;;;;;;68.25;63.50;;;19.10;99.90;;;;;;5094889;28;20020;-62
2021/03/17 10:58:25;;;;;;;67.40;62.97;;;19.10;99.90;;;;;;5094365;28;20076;-62
2021/03/17 11:00:55;;;;;;;70.90;65.70;;;19.10;99.90;;;;;;5094753;28;20350;-62
2021/03/17 11:03:26;;;;;;;73.05;67.90;;;19.20;99.90;;;;;;5094530;28;20146;-62
2021/03/17 11:06:20;;;;;;;72.70;67.65;;;19.20;99.90;;;;;;5094427;28;20035;-62
2021/03/17 11:09:04;;;;;;;72.47;67.45;;;19.20;99.90;;;;;;5093500;28;20421;-63
2021/03/17 11:11:34;;;;;;;73.68;69.13;;;19.20;99.90;;;;;;5094734;28;20020;-62
2021/03/17 11:14:02;;;;;;;72.80;67.95;;;19.30;99.90;;;;;;5093965;28;20024;-62
2021/03/17 11:16:31;;;;;;;69.30;64.80;;;19.30;99.90;;;;;;5094082;28;20062;-62
2021/03/17 11:19:00;;;;;;;71.30;66.70;;;19.30;99.90;;;;;;5093979;28;20052;-62
2021/03/17 11:21:39;;;;;;;70.90;66.03;;;19.30;99.90;;;;;;5094184;28;20016;-62
2021/03/17 11:24:26;;;;;;;75.15;70.15;;;19.30;99.90;;;;;;5093831;28;20374;-62
2021/03/17 11:26:54;;;;;;;75.32;70.38;;;19.30;99.90;;;;;;5093985;28;20099;-62
2021/03/17 11:29:24;;;;;;;73.20;67.85;;;19.30;99.90;;;;;;5093763;28;20031;-62
2021/03/17 11:31:56;;;;;;;73.43;68.60;;;19.30;99.90;;;;;;5093857;28;20031;-63
2021/03/17 11:34:23;;;;;;;78.28;72.55;;;19.30;99.90;;;;;;5094013;28;20111;-63
2021/03/17 11:36:51;;;;;;;78.97;73.38;;;19.20;99.90;;;;;;5092354;28;20027;-63
2021/03/17 11:39:19;;;;;;;83.45;77.25;;;19.00;99.90;;;;;;5093515;28;20051;-62
2021/03/17 11:41:49;;;;;;;83.05;76.95;;;18.90;99.90;;;;;;5093614;28;20016;-63
2021/03/17 11:44:19;;;;;;;84.95;78.72;;;18.90;99.90;;;;;;5093538;28;20457;-63
2021/03/17 11:46:48;;;;;;;86.07;79.32;;;18.80;99.90;;;;;;5093816;28;20034;-63
2021/03/17 11:49:16;;;;;;;85.88;79.65;;;18.80;99.90;;;;;;5093498;28;20023;-63
2021/03/17 11:51:47;;;;;;;85.00;78.88;;;18.80;99.90;;;;;;5093486;28;20028;-63
2021/03/17 11:54:15;;;;;;;87.47;81.22;;;18.80;99.90;;;;;;5093368;28;20020;-63
2021/03/17 11:56:43;;;;;;;87.88;81.57;;;18.80;99.90;;;;;;5093407;28;20016;-63
2021/03/17 11:59:10;;;;;;;90.30;83.60;;;18.80;99.90;;;;;;5093361;28;20431;-62
2021/03/17 12:01:38;;;;;;;90.97;84.47;;;18.70;99.90;;;;;;5093370;28;20451;-63
2021/03/17 12:04:05;;;;;;;92.95;86.40;;;18.70;99.90;;;;;;5093335;28;20024;-64
2021/03/17 12:06:33;;;;;;;92.38;86.20;;;18.70;99.90;;;;;;5093354;28;20079;-63
2021/03/17 12:09:00;;;;;;;92.65;86.00;;;18.70;99.90;;;;;;5093641;28;20476;-64
2021/03/17 12:11:29;;;;;;;93.07;86.82;;;18.60;99.90;;;;;;5093262;28;20028;-62
2021/03/17 12:13:56;;;;;;;90.45;84.47;;;18.70;99.90;;;;;;5093183;28;20115;-62
2021/03/17 12:16:24;;;;;;;92.43;86.47;;;18.60;99.90;;;;;;5093184;28;20077;-62
2021/03/17 12:18:51;;;;;;;92.43;86.32;;;18.60;99.90;;;;;;5093213;28;20065;-62
2021/03/17 12:21:19;;;;;;;90.30;84.60;;;18.60;99.90;;;;;;5093171;28;20024;-63
2021/03/17 12:23:47;;;;;;;91.13;85.38;;;18.60;99.90;;;;;;5093097;28;20044;-63
2021/03/17 12:26:15;;;;;;;90.45;84.35;;;18.60;99.90;;;;;;5093046;28;20024;-63
2021/03/17 12:28:42;;;;;;;86.60;81.18;;;18.60;99.90;;;;;;5091634;28;20027;-62
2021/03/17 12:31:10;;;;;;;85.10;79.68;;;18.60;99.90;;;;;;5093282;28;20502;-63
2021/03/17 12:33:37;;;;;;;85.53;80.22;;;18.70;99.90;;;;;;5092956;28;20024;-62
2021/03/17 12:36:05;;;;;;;86.47;81.07;;;18.70;99.90;;;;;;5092995;28;20027;-62
2021/03/17 12:38:32;;;;;;;84.97;79.57;;;18.60;99.90;;;;;;5092819;28;20035;-62
2021/03/17 12:41:00;;;;;;;81.85;76.63;;;18.60;99.90;;;;;;5092980;28;20020;-64
2021/03/17 12:43:29;;;;;;;84.18;78.85;;;18.60;99.90;;;;;;5091589;28;20389;-63
2021/03/17 12:45:56;;;;;;;84.80;79.40;;;18.60;99.90;;;;;;5092835;28;20024;-62
2021/03/17 12:48:24;;;;;;;86.20;80.90;;;18.60;99.90;;;;;;5092721;28;20032;-63
2021/03/17 12:50:51;;;;;;;87.28;82.13;;;18.60;99.90;;;;;;5092923;28;20027;-63
2021/03/17 12:53:18;;;;;;;86.80;81.72;;;18.50;99.90;;;;;;5092783;28;20024;-65